Pagrindinis puslapis
METAR-TAF:

METAR-TAF

Oro uostai :

Hooper Bay, Aliaska, Jungtinės Amerikos Valstijos

platuma: 61-31N, ilguma: 166-08W, Aukštis: 5 m

Dabartinis oras

Ataskaita buvo paskelbta 36 minutes, ne 03:56 UTC
Vėjas 4 kt iš Šiaurės
Temperatūra 7°C
Drėgmė 70%
Slėgis 1002 hPa
Matomumas: 16.1 km
Giedras dangus

METAR: PAHP 210356Z AUTO 01004KT 10SM CLR 07/02 A2960 RMK AO2 SLP060 T00670022 PNO $

Laikas: 20:32 (04:32 UTC)


TAF: trūkstamas

Orai ataskaitas ir orų prognozės (METAR, TAF).

turimą stotys yra geltonos ir raudonos taškus žemėlapyje.

Perkelti pele per norėdami pamatyti stoties vardą.

Tada spustelėkite, norėdami matyti oro stebėjimo ir prognozės.

Norėdami pakeisti žemėlapį: spustelėkite ant žalios mygtukų su juodo kryžiaus žemyn,; žalią mygtuką su brūkšneliu, jei norite nutolinti; arba žalių rodyklių gretimoms žemėlapius.


METAR-TAF: